Aérodrome :
LOGIN :

S'inscrire | Disclaimer

   EN    FR    IT 

 










Légende :    VFR   VFR Marginal   IFR   IFR Intensif   IFR Très Intensif
Visi : 
Plafond : 
>= 8 km
>= 3000ft
5 à 8 km
1000 à 3000 ft
1500m à 5 km
500 à 1000 ft
800 à 1500m
200 à 500 ft
< 800m
< 200 ft
Symboles :   Orages  Brouillard  Fortes neiges  Fortes précipitations  Vent > 20 kt
SIGMETs :   Divers  Orages  Givrage  Turbulence  Onde Orograph.  Cendres Volcan.







- Altitude de l'aérodrome : 12 ft
- Code IATA : NCE
- Voir les cartes d'approche


LFMN - Nice

DERNIER METAR :
  • 241230Z 10011KT 9999 FEW033CB BKN200 26/19 Q1016 NOSIG

METARs EXPIRÉS :
  • 241200Z 09011KT 9999 FEW033TCU SCT100 BKN200 26/18 Q1016 NOSIG
  • 241130Z 09011KT 9999 FEW023 SCT100 BKN200 26/18 Q1016 NOSIG
  • 241100Z 09011KT 9999 FEW023 SCT093 BKN200 26/19 Q1016 NOSIG
  • 241030Z 09011KT 9999 FEW023 SCT093 BKN200 25/19 Q1017 NOSIG
  • 241000Z 09011KT 9999 FEW023 SCT100 BKN200 25/19 Q1017 NOSIG

TAF TAF LFMN
Valide du 24 à 09h jusqu'au 25 à 15h UTC


240800Z 2409/2515 10010KT 9999 FEW050 BKN100
TEMPO 2413/2418 FEW040TCU
PROB40
TEMPO 2414/2416 36015G25KT TSRA SCT040CB
BECMG 2416/2418 34010KT
BECMG 2418/2420 NSC
BECMG 2507/2509 16010KT
ATIS : +33 4 93 17 21 16
Pas de NOTAMs connus pour ce terrain.
1 SIGMET publié pour la FIR Marseille (LFMM) :
 
Orages noyés dans la masse
LFMM SIGMET 1 VALID 241220/241500 LFPW
LFMM MARSEILLE FIR/UIR EMBD TS FCST WI N4130 E00845 - N4245 E00845 - N4245 E00930 - N4130 E00915 - N4130 E00845 TOP FL350 STNR NC=



MET'MAP, la Météo Aéronautique d'un coup d'oeil ! - Copyright ORBIFLY Décembre 2007 - Disclaimer

ORBIFLY MET'MAP TEAM :

Programmation & Développement : Alexandra Zaïnal
Conception & Développement : Baudouin d'Aumeries
Co-Programmation & Développement : Marc-Olivier Méhu
Soutien technique & logistique : Manuel Goepfert

Contact : metmap@orbifly.com




SOURCES & CREDITS :

   NOAA